createdAt,value
2019-03-30T00:01:16.218Z,7.57
2019-03-30T00:03:47.200Z,9.80
2019-03-30T00:06:18.077Z,11.37
2019-03-30T00:08:48.985Z,13.83
2019-03-30T00:11:19.844Z,12.87
2019-03-30T00:13:50.758Z,14.03
2019-03-30T00:16:21.603Z,8.37
2019-03-30T00:18:53.498Z,8.27
2019-03-30T00:21:24.350Z,8.33
2019-03-30T00:23:55.262Z,8.40
2019-03-30T00:26:26.120Z,7.80
2019-03-30T00:28:57.024Z,7.37
2019-03-30T00:31:27.875Z,8.03
2019-03-30T00:33:58.761Z,8.60
2019-03-30T00:36:29.630Z,8.50
2019-03-30T00:39:00.539Z,9.10
2019-03-30T00:41:33.065Z,8.53
2019-03-30T00:44:03.948Z,8.60
2019-03-30T00:46:34.798Z,8.03
2019-03-30T00:49:05.652Z,8.40
2019-03-30T00:51:36.498Z,8.00
2019-03-30T00:54:07.393Z,7.47
2019-03-30T00:56:38.244Z,7.50
2019-03-30T00:59:09.116Z,7.27
2019-03-30T01:01:40.479Z,7.63
2019-03-30T01:04:11.333Z,7.37
2019-03-30T01:06:42.185Z,7.13
2019-03-30T01:09:13.114Z,7.33
2019-03-30T01:11:43.958Z,7.70
2019-03-30T01:14:14.810Z,6.90
2019-03-30T01:16:45.709Z,7.00
2019-03-30T01:19:16.612Z,6.83
2019-03-30T01:21:47.470Z,6.70
2019-03-30T01:24:18.357Z,7.40
2019-03-30T01:26:49.176Z,7.10
2019-03-30T01:29:20.024Z,7.53
2019-03-30T01:31:50.882Z,6.50
2019-03-30T01:34:25.477Z,6.87
2019-03-30T01:36:56.394Z,7.10
2019-03-30T01:39:27.310Z,7.27
2019-03-30T01:41:58.835Z,6.57
2019-03-30T01:44:30.196Z,6.37
2019-03-30T01:47:01.375Z,6.80
2019-03-30T01:49:32.423Z,7.60
2019-03-30T01:52:04.956Z,9.30
2019-03-30T01:54:36.100Z,9.27
2019-03-30T01:57:08.528Z,12.37
2019-03-30T01:59:39.840Z,10.37
2019-03-30T02:02:11.041Z,7.80
2019-03-30T02:04:42.142Z,7.10
2019-03-30T02:07:13.295Z,6.57
2019-03-30T02:09:44.485Z,6.93
2019-03-30T02:12:15.505Z,7.43
2019-03-30T02:14:46.747Z,7.67
2019-03-30T02:17:20.111Z,6.77
2019-03-30T02:19:50.568Z,8.10
2019-03-30T02:22:21.573Z,6.90
2019-03-30T02:24:52.682Z,9.20
2019-03-30T02:27:23.901Z,6.97
2019-03-30T02:29:55.089Z,9.07
2019-03-30T02:32:26.032Z,8.07
2019-03-30T02:34:56.941Z,6.47
2019-03-30T02:37:27.784Z,6.47
2019-03-30T02:39:58.642Z,6.00
2019-03-30T02:42:29.509Z,6.57
2019-03-30T02:45:00.543Z,6.20
2019-03-30T02:47:31.330Z,6.50
2019-03-30T02:50:02.231Z,6.60
2019-03-30T02:52:34.050Z,6.50
2019-03-30T02:55:04.982Z,6.27
2019-03-30T02:57:35.830Z,6.50
2019-03-30T03:00:09.945Z,6.70
2019-03-30T03:02:40.834Z,6.00
2019-03-30T03:05:12.219Z,6.53
2019-03-30T03:07:43.316Z,6.20
2019-03-30T03:10:14.746Z,6.50
2019-03-30T03:12:45.592Z,6.60
2019-03-30T03:15:16.489Z,6.77
2019-03-30T03:17:47.334Z,6.80
2019-03-30T03:20:18.209Z,6.60
2019-03-30T03:22:49.049Z,6.13
2019-03-30T03:25:19.904Z,6.97
2019-03-30T03:27:50.806Z,6.57
2019-03-30T03:30:21.893Z,6.53
2019-03-30T03:32:52.722Z,6.37
2019-03-30T03:35:23.603Z,6.60
2019-03-30T03:37:54.417Z,7.43
2019-03-30T03:40:25.273Z,7.73
2019-03-30T03:42:56.611Z,7.13
2019-03-30T03:45:27.473Z,7.20
2019-03-30T03:47:58.331Z,7.60
2019-03-30T03:50:41.087Z,7.30
2019-03-30T03:53:14.570Z,7.53
2019-03-30T03:55:46.370Z,7.23
2019-03-30T03:58:17.834Z,7.87
2019-03-30T04:00:50.645Z,8.07
2019-03-30T04:03:21.788Z,8.13
2019-03-30T04:05:55.563Z,8.27
2019-03-30T04:08:28.797Z,8.10
2019-03-30T04:11:00.362Z,8.20
2019-03-30T04:13:31.815Z,8.20
2019-03-30T04:16:02.697Z,8.50
2019-03-30T04:18:33.530Z,8.40
2019-03-30T04:21:04.403Z,8.73
2019-03-30T04:23:35.239Z,8.17
2019-03-30T04:26:06.603Z,8.80
2019-03-30T04:28:37.561Z,8.63
2019-03-30T04:31:08.425Z,9.07
2019-03-30T04:33:39.320Z,9.27
2019-03-30T04:36:10.180Z,9.00
2019-03-30T04:38:41.057Z,8.67
2019-03-30T04:41:11.913Z,8.40
2019-03-30T04:43:43.725Z,8.60
2019-03-30T04:46:14.622Z,8.70
2019-03-30T04:48:45.458Z,8.57
2019-03-30T04:51:16.398Z,8.87
2019-03-30T04:53:47.187Z,8.70
2019-03-30T04:56:18.060Z,9.03
2019-03-30T04:58:48.895Z,8.80
2019-03-30T05:01:19.771Z,9.30
2019-03-30T05:03:50.716Z,8.97
2019-03-30T05:06:21.498Z,9.40
2019-03-30T05:08:52.365Z,8.90
2019-03-30T05:11:23.306Z,8.90
2019-03-30T05:13:54.152Z,9.27
2019-03-30T05:16:25.036Z,8.70
2019-03-30T05:18:55.895Z,9.53
2019-03-30T05:21:26.775Z,9.07
2019-03-30T05:23:57.648Z,9.50
2019-03-30T05:26:28.485Z,9.13
2019-03-30T05:28:59.347Z,8.90
2019-03-30T05:31:30.177Z,9.53
2019-03-30T05:34:01.049Z,9.87
2019-03-30T05:36:31.907Z,8.97
2019-03-30T05:39:03.071Z,8.97
2019-03-30T05:41:33.917Z,9.60
2019-03-30T05:44:04.771Z,9.47
2019-03-30T05:46:35.641Z,9.20
2019-03-30T05:49:06.550Z,9.13
2019-03-30T05:51:37.422Z,9.60
2019-03-30T05:54:08.318Z,9.53
2019-03-30T05:56:39.196Z,9.40
2019-03-30T05:59:10.036Z,9.93
2019-03-30T06:01:40.863Z,9.43
2019-03-30T06:04:11.752Z,9.40
2019-03-30T06:06:42.586Z,9.30
2019-03-30T06:09:13.435Z,9.37
2019-03-30T06:11:44.269Z,9.10
2019-03-30T06:14:15.177Z,9.97
2019-03-30T06:16:46.041Z,9.37
2019-03-30T06:19:16.965Z,9.47
2019-03-30T06:21:47.796Z,9.67
2019-03-30T06:24:18.674Z,9.63
2019-03-30T06:26:49.495Z,10.10
2019-03-30T06:29:20.374Z,10.37
2019-03-30T06:31:51.210Z,9.87
2019-03-30T06:34:22.068Z,9.93
2019-03-30T06:36:52.926Z,9.87
2019-03-30T06:39:24.868Z,9.90
2019-03-30T06:41:57.592Z,10.10
2019-03-30T06:44:28.511Z,9.90
2019-03-30T06:46:59.356Z,9.70
2019-03-30T06:49:30.926Z,9.53
2019-03-30T06:52:01.994Z,10.30
2019-03-30T06:54:33.145Z,10.10
2019-03-30T06:57:04.905Z,9.53
2019-03-30T06:59:37.190Z,10.27
2019-03-30T07:02:14.281Z,10.00
2019-03-30T07:04:45.373Z,9.73
2019-03-30T07:07:21.160Z,9.70
2019-03-30T07:09:54.660Z,9.57
2019-03-30T07:12:26.013Z,9.40
2019-03-30T07:15:00.389Z,9.60
2019-03-30T07:17:31.702Z,9.90
2019-03-30T07:20:04.210Z,9.67
2019-03-30T07:22:35.344Z,9.97
2019-03-30T07:25:06.485Z,10.40
2019-03-30T07:27:37.392Z,9.80
2019-03-30T07:30:09.913Z,9.90
2019-03-30T07:32:41.711Z,10.07
2019-03-30T07:35:12.637Z,9.27
2019-03-30T07:37:44.467Z,9.53
2019-03-30T07:40:15.526Z,10.30
2019-03-30T07:42:46.505Z,10.10
2019-03-30T07:45:19.230Z,10.20
2019-03-30T07:47:50.084Z,10.17
2019-03-30T07:50:21.735Z,10.27
2019-03-30T07:52:52.673Z,9.87
2019-03-30T07:55:23.526Z,10.23
2019-03-30T07:57:54.645Z,10.23
2019-03-30T08:00:30.605Z,10.13
2019-03-30T08:02:58.188Z,9.93
2019-03-30T08:05:29.048Z,10.13
2019-03-30T08:07:59.930Z,10.97
2019-03-30T08:10:31.548Z,10.97
2019-03-30T08:13:02.538Z,11.07
2019-03-30T08:15:33.543Z,11.00
2019-03-30T08:18:04.399Z,10.63
2019-03-30T08:20:35.256Z,11.07
2019-03-30T08:23:06.800Z,11.93
2019-03-30T08:25:37.637Z,11.50
2019-03-30T08:28:08.521Z,11.30
2019-03-30T08:30:39.432Z,11.47
2019-03-30T08:33:11.633Z,11.97
2019-03-30T08:35:42.702Z,11.73
2019-03-30T08:38:13.583Z,11.80
2019-03-30T08:40:45.348Z,12.67
2019-03-30T08:43:16.252Z,13.03
2019-03-30T08:45:48.911Z,12.13
2019-03-30T08:48:20.098Z,13.10
2019-03-30T08:50:51.262Z,13.80
2019-03-30T08:53:23.215Z,12.93
2019-03-30T08:55:54.510Z,14.93
2019-03-30T08:58:25.462Z,13.67
2019-03-30T09:00:56.333Z,13.80
2019-03-30T09:03:27.278Z,13.37
2019-03-30T09:05:58.113Z,13.47
2019-03-30T09:08:28.981Z,12.83
2019-03-30T09:11:00.815Z,13.00
2019-03-30T09:13:31.663Z,14.30
2019-03-30T09:16:02.542Z,14.57
2019-03-30T09:18:33.419Z,13.93
2019-03-30T09:21:04.291Z,13.73
2019-03-30T09:23:35.162Z,14.53
2019-03-30T09:26:05.988Z,13.97
2019-03-30T09:28:36.887Z,14.07
2019-03-30T09:31:07.831Z,14.20
2019-03-30T09:33:38.697Z,14.10
2019-03-30T09:36:09.541Z,14.20
2019-03-30T09:38:40.409Z,14.43
2019-03-30T09:41:11.267Z,13.73
2019-03-30T09:43:42.222Z,14.10
2019-03-30T09:46:13.056Z,13.50
2019-03-30T09:48:43.922Z,13.30
2019-03-30T09:51:14.762Z,13.90
2019-03-30T09:53:45.653Z,14.17
2019-03-30T09:56:17.463Z,14.23
2019-03-30T09:58:48.350Z,13.63
2019-03-30T10:01:19.202Z,15.07
2019-03-30T10:03:50.067Z,15.10
2019-03-30T10:06:30.505Z,15.57
2019-03-30T10:08:54.678Z,14.93
2019-03-30T10:11:25.550Z,15.73
2019-03-30T10:13:57.475Z,15.57
2019-03-30T10:16:28.322Z,17.20
2019-03-30T10:18:59.217Z,16.03
2019-03-30T10:21:30.133Z,16.00
2019-03-30T10:24:01.011Z,15.97
2019-03-30T10:26:31.853Z,15.90
2019-03-30T10:29:03.330Z,16.33
2019-03-30T10:31:34.121Z,16.20
2019-03-30T10:34:05.122Z,15.27
2019-03-30T10:36:36.065Z,15.43
2019-03-30T10:39:08.401Z,15.80
2019-03-30T10:41:47.543Z,16.30
2019-03-30T10:44:18.561Z,15.20
2019-03-30T10:46:49.723Z,16.60
2019-03-30T10:49:21.708Z,15.80
2019-03-30T10:51:54.316Z,15.80
2019-03-30T10:54:25.238Z,14.77
2019-03-30T10:56:56.080Z,15.73
2019-03-30T10:59:26.937Z,15.13
2019-03-30T11:01:57.876Z,16.15
2019-03-30T11:04:28.737Z,15.67
2019-03-30T11:06:59.850Z,15.25
2019-03-30T11:09:31.511Z,15.85
2019-03-30T11:12:02.966Z,15.63
2019-03-30T11:14:33.920Z,15.70
2019-03-30T11:17:05.272Z,14.98
2019-03-30T11:19:37.049Z,15.28
2019-03-30T11:22:08.221Z,15.25
2019-03-30T11:24:39.642Z,15.32
2019-03-30T11:27:10.804Z,14.87
2019-03-30T11:29:41.834Z,14.50
2019-03-30T11:32:12.732Z,14.68
2019-03-30T11:34:44.089Z,14.33
2019-03-30T11:37:14.980Z,15.08
2019-03-30T11:39:46.960Z,15.83
2019-03-30T11:42:17.797Z,15.00
2019-03-30T11:44:48.713Z,15.10
2019-03-30T11:47:19.568Z,15.85
2019-03-30T11:49:50.450Z,15.48
2019-03-30T11:52:21.363Z,15.53
2019-03-30T11:54:52.259Z,15.25
2019-03-30T11:57:23.168Z,16.07
2019-03-30T11:59:54.095Z,15.70
2019-03-30T12:02:28.092Z,15.60
2019-03-30T12:04:57.525Z,16.80
2019-03-30T12:07:30.547Z,15.70
2019-03-30T12:10:01.543Z,14.98
2019-03-30T12:12:33.422Z,15.15
2019-03-30T12:15:04.341Z,14.95
2019-03-30T12:17:35.266Z,15.98
2019-03-30T12:20:06.513Z,15.43
2019-03-30T12:22:37.421Z,15.25
2019-03-30T12:25:08.546Z,14.95
2019-03-30T12:27:39.530Z,15.68
2019-03-30T12:30:10.625Z,14.43
2019-03-30T12:32:41.529Z,13.15
2019-03-30T12:35:13.321Z,13.68
2019-03-30T12:37:44.261Z,13.62
2019-03-30T12:40:15.249Z,13.22
2019-03-30T12:42:46.188Z,14.40
2019-03-30T12:45:17.162Z,13.78
2019-03-30T12:47:48.017Z,12.47
2019-03-30T12:50:18.892Z,13.83
2019-03-30T12:52:49.781Z,14.13
2019-03-30T12:55:20.674Z,12.70
2019-03-30T12:57:51.521Z,13.22
2019-03-30T13:00:23.406Z,13.15
2019-03-30T13:02:54.540Z,13.18
2019-03-30T13:05:25.979Z,12.98
2019-03-30T13:07:57.053Z,13.32
2019-03-30T13:10:27.986Z,11.70
2019-03-30T13:12:58.856Z,12.18
2019-03-30T13:15:29.711Z,11.73
2019-03-30T13:18:00.603Z,10.80
2019-03-30T13:20:31.467Z,9.70
2019-03-30T13:23:02.317Z,9.68
2019-03-30T13:25:33.209Z,7.30
2019-03-30T13:28:04.138Z,6.60
2019-03-30T13:30:35.093Z,6.55
2019-03-30T13:33:06.576Z,7.17
2019-03-30T13:35:37.597Z,6.33
2019-03-30T13:38:08.496Z,8.15
2019-03-30T13:40:39.364Z,9.03
2019-03-30T13:43:10.484Z,9.20
2019-03-30T13:45:41.364Z,9.13
2019-03-30T13:48:12.227Z,8.90
2019-03-30T13:50:43.089Z,8.23
2019-03-30T13:53:13.991Z,6.37
2019-03-30T13:55:44.922Z,5.55
2019-03-30T13:58:15.779Z,5.58
2019-03-30T14:00:46.640Z,5.15
2019-03-30T14:03:17.577Z,5.47
2019-03-30T14:05:48.440Z,4.92
2019-03-30T14:08:19.294Z,4.75
2019-03-30T14:10:50.203Z,5.12
2019-03-30T14:13:29.786Z,4.65
2019-03-30T14:16:00.825Z,5.30
2019-03-30T14:18:31.741Z,5.03
2019-03-30T14:21:02.667Z,4.47
2019-03-30T14:23:33.590Z,4.67
2019-03-30T14:26:04.452Z,5.08
2019-03-30T14:28:35.312Z,4.70
2019-03-30T14:31:06.229Z,5.10
2019-03-30T14:33:37.081Z,4.78
2019-03-30T14:36:07.977Z,6.28
2019-03-30T14:38:38.877Z,5.30
2019-03-30T14:41:09.765Z,4.50
2019-03-30T14:43:40.673Z,4.65
2019-03-30T14:46:12.930Z,4.12
2019-03-30T14:48:43.867Z,4.10
2019-03-30T14:51:14.746Z,3.83
2019-03-30T14:53:45.637Z,4.17
2019-03-30T14:56:16.574Z,3.95
2019-03-30T14:58:47.426Z,3.70
2019-03-30T15:01:18.321Z,3.55
2019-03-30T15:03:50.327Z,4.03
2019-03-30T15:06:21.481Z,4.53
2019-03-30T15:08:52.764Z,4.37
2019-03-30T15:11:23.881Z,4.20
2019-03-30T15:13:54.942Z,4.30
2019-03-30T15:16:26.467Z,4.28
2019-03-30T15:18:58.467Z,4.28
2019-03-30T15:21:29.685Z,4.40
2019-03-30T15:24:01.580Z,4.85
2019-03-30T15:26:34.314Z,4.33
2019-03-30T15:29:06.023Z,4.28
2019-03-30T15:31:36.975Z,3.87
2019-03-30T15:34:07.958Z,5.12
2019-03-30T15:36:39.114Z,4.10
2019-03-30T15:39:11.037Z,3.92
2019-03-30T15:41:42.245Z,4.12
2019-03-30T15:44:13.326Z,4.10
2019-03-30T15:46:44.171Z,3.90
2019-03-30T15:49:15.024Z,3.25
2019-03-30T15:51:46.554Z,3.37
2019-03-30T15:54:18.394Z,3.47
2019-03-30T15:56:49.299Z,3.08
2019-03-30T15:59:22.022Z,3.50
2019-03-30T16:01:53.365Z,3.67
2019-03-30T16:04:24.347Z,3.77
2019-03-30T16:06:55.215Z,3.37
2019-03-30T16:09:27.056Z,3.40
2019-03-30T16:11:58.389Z,3.02
2019-03-30T16:14:29.409Z,3.25
2019-03-30T16:17:00.765Z,3.80
2019-03-30T16:19:32.182Z,3.80
2019-03-30T16:22:03.821Z,3.40
2019-03-30T16:24:37.187Z,3.67
2019-03-30T16:27:08.515Z,3.85
2019-03-30T16:29:40.554Z,3.50
2019-03-30T16:32:11.565Z,3.17
2019-03-30T16:34:42.495Z,3.50
2019-03-30T16:37:13.515Z,3.47
2019-03-30T16:39:44.530Z,2.92
2019-03-30T16:42:17.277Z,3.85
2019-03-30T16:44:48.479Z,5.05
2019-03-30T16:47:19.477Z,3.83
2019-03-30T16:49:50.416Z,3.67
2019-03-30T16:52:21.521Z,3.70
2019-03-30T16:54:52.665Z,4.37
2019-03-30T16:57:23.993Z,2.90
2019-03-30T16:59:54.974Z,3.02
2019-03-30T17:02:25.846Z,2.75
2019-03-30T17:04:56.730Z,3.55
2019-03-30T17:07:29.928Z,3.47
2019-03-30T17:10:01.176Z,3.08
2019-03-30T17:12:33.922Z,3.02
2019-03-30T17:15:04.959Z,3.20
2019-03-30T17:17:36.106Z,2.83
2019-03-30T17:20:07.756Z,3.20
2019-03-30T17:22:39.601Z,2.83
2019-03-30T17:25:10.943Z,2.70
2019-03-30T17:27:56.917Z,3.70
2019-03-30T17:30:15.995Z,4.10
2019-03-30T17:32:47.414Z,4.33
2019-03-30T17:35:21.470Z,4.90
2019-03-30T17:37:52.669Z,4.22
2019-03-30T17:40:24.135Z,3.58
2019-03-30T17:42:56.823Z,5.07
2019-03-30T17:45:27.925Z,4.40
2019-03-30T17:48:00.062Z,4.00
2019-03-30T17:50:30.971Z,3.65
2019-03-30T17:53:01.837Z,3.42
2019-03-30T17:55:34.076Z,3.65
2019-03-30T17:58:12.947Z,3.70
2019-03-30T18:00:37.711Z,3.22
2019-03-30T18:03:08.515Z,4.27
2019-03-30T18:05:39.381Z,4.00
2019-03-30T18:08:10.206Z,3.98
2019-03-30T18:10:41.076Z,4.10
2019-03-30T18:13:11.914Z,4.10
2019-03-30T18:15:42.813Z,4.43
2019-03-30T18:18:13.642Z,6.00
2019-03-30T18:20:44.549Z,4.87
2019-03-30T18:23:18.957Z,4.20
2019-03-30T18:25:50.290Z,3.70
2019-03-30T18:28:27.460Z,4.03
2019-03-30T18:30:54.635Z,3.70
2019-03-30T18:33:27.298Z,4.00
2019-03-30T18:35:59.052Z,3.70
2019-03-30T18:38:30.932Z,4.10
2019-03-30T18:41:02.482Z,4.77
2019-03-30T18:43:40.705Z,4.83
2019-03-30T18:46:31.116Z,4.90
2019-03-30T18:49:09.222Z,5.43
2019-03-30T18:51:57.303Z,7.27
2019-03-30T18:54:53.178Z,6.30
2019-03-30T18:57:26.806Z,7.37
2019-03-30T19:00:00.854Z,7.90
2019-03-30T19:02:34.851Z,6.47
2019-03-30T19:05:07.662Z,9.10
2019-03-30T19:07:39.295Z,8.13
2019-03-30T19:10:13.327Z,8.03
2019-03-30T19:12:46.486Z,8.97
2019-03-30T19:15:19.951Z,9.37
2019-03-30T19:17:53.746Z,9.83
2019-03-30T19:20:30.417Z,11.83
2019-03-30T19:23:04.010Z,12.53
2019-03-30T19:25:39.609Z,12.27
2019-03-30T19:28:14.472Z,9.57
2019-03-30T19:30:53.140Z,10.57
2019-03-30T19:33:29.941Z,11.03
2019-03-30T19:36:03.400Z,14.43
2019-03-30T19:38:37.011Z,14.80
2019-03-30T19:41:09.641Z,13.23
2019-03-30T19:43:45.331Z,13.23
2019-03-30T19:46:18.157Z,13.20
2019-03-30T19:48:53.921Z,12.83
2019-03-30T19:51:24.953Z,12.97
2019-03-30T19:53:59.794Z,12.60
2019-03-30T19:56:30.988Z,12.57
2019-03-30T19:59:10.455Z,11.20
2019-03-30T20:01:38.339Z,11.10
2019-03-30T20:04:11.652Z,12.00
2019-03-30T20:06:45.202Z,12.00
2019-03-30T20:09:20.814Z,11.37
2019-03-30T20:11:52.638Z,12.73
2019-03-30T20:14:25.449Z,11.57
2019-03-30T20:16:57.804Z,12.70
2019-03-30T20:19:30.249Z,13.17
2019-03-30T20:22:04.883Z,11.47
2019-03-30T20:24:37.285Z,13.37
2019-03-30T20:27:10.027Z,12.67
2019-03-30T20:29:43.439Z,13.10
2019-03-30T20:32:15.236Z,12.37
2019-03-30T20:34:47.378Z,11.17
2019-03-30T20:37:18.370Z,9.77
2019-03-30T20:39:51.293Z,9.43
2019-03-30T20:42:22.509Z,11.30
2019-03-30T20:44:53.742Z,12.37
2019-03-30T20:47:24.749Z,9.80
2019-03-30T20:49:56.213Z,8.20
2019-03-30T20:52:29.548Z,8.00
2019-03-30T20:55:01.129Z,7.50
2019-03-30T20:57:32.950Z,7.80
2019-03-30T21:00:05.109Z,9.40
2019-03-30T21:02:44.590Z,8.13
2019-03-30T21:05:16.798Z,7.07
2019-03-30T21:07:49.253Z,7.50
2019-03-30T21:10:21.474Z,6.83
2019-03-30T21:12:54.971Z,8.13
2019-03-30T21:15:31.641Z,11.93
2019-03-30T21:18:09.013Z,20.27
2019-03-30T21:20:40.037Z,19.33
2019-03-30T21:23:11.896Z,17.17
2019-03-30T21:25:46.163Z,10.80
2019-03-30T21:28:20.571Z,11.57
2019-03-30T21:30:51.895Z,10.97
2019-03-30T21:33:22.981Z,10.70
2019-03-30T21:35:56.501Z,10.57
2019-03-30T21:38:27.331Z,9.50
2019-03-30T21:40:58.283Z,10.33
2019-03-30T21:43:29.163Z,10.63
2019-03-30T21:46:00.143Z,10.43
2019-03-30T21:48:31.115Z,13.00
2019-03-30T21:51:02.108Z,12.87
2019-03-30T21:53:33.200Z,11.20
